Time;durP1;ratioP1;P1;durP2;ratioP2;P2;SDS_P1;SDS_P2;PMS_P1;PMS_P2;Temp;Humidity;BMP_temperature;BMP_pressure;BME280_temperature;BME280_humidity;BME280_pressure;Samples;Min_cycle;Max_cycle;Signal;HPM_P1;HPM_P2
2021/05/08 00:02:24;;;;;;;4.35;3.83;;;;;;;5.18;72.75;98675.07;2229801;80;21683;-79
2021/05/08 00:05:25;;;;;;;4.50;4.20;;;;;;;5.18;72.84;98679.45;2229529;80;21156;-79
2021/05/08 00:08:27;;;;;;;5.35;4.35;;;;;;;5.19;72.62;98688.38;2229523;80;21172;-79
2021/05/08 00:11:29;;;;;;;7.22;5.80;;;;;;;5.19;72.73;98688.38;2230024;80;21175;-79
2021/05/08 00:14:30;;;;;;;5.85;4.17;;;;;;;5.22;72.64;98682.11;2229806;80;21310;-79
2021/05/08 00:17:33;;;;;;;5.42;4.95;;;;;;;5.23;72.61;98689.74;2229716;80;21152;-78
2021/05/08 00:20:35;;;;;;;5.70;4.58;;;;;;;5.19;73.18;98691.46;2227715;80;21338;-79
2021/05/08 00:23:37;;;;;;;4.70;4.30;;;;;;;5.14;73.29;98699.22;2225432;80;21290;-79
2021/05/08 00:26:39;;;;;;;4.65;4.25;;;;;;;5.15;73.05;98698.73;2225556;80;21302;-79
2021/05/08 00:29:41;;;;;;;6.37;4.50;;;;;;;5.12;73.18;98696.41;2225164;80;21298;-79
2021/05/08 00:32:42;;;;;;;8.18;5.20;;;;;;;5.16;73.37;98708.15;2225084;80;21698;-79
2021/05/08 00:35:44;;;;;;;5.78;5.17;;;;;;;5.16;73.33;98708.15;2225223;80;21656;-79
2021/05/08 00:38:46;;;;;;;5.15;4.62;;;;;;;5.13;73.20;98709.27;2225536;80;21266;-79
2021/05/08 00:41:48;;;;;;;5.12;4.72;;;;;;;5.10;73.20;98705.64;2225346;80;21309;-79
2021/05/08 00:44:49;;;;;;;6.20;5.40;;;;;;;5.06;73.57;98717.77;2225511;80;21140;-79
2021/05/08 00:47:51;;;;;;;8.03;6.03;;;;;;;5.06;73.46;98715.17;2225427;80;21307;-79
2021/05/08 00:50:53;;;;;;;5.90;5.15;;;;;;;4.98;74.33;98715.89;2225416;80;21306;-79
2021/05/08 00:53:55;;;;;;;7.12;6.22;;;;;;;4.91;73.94;98721.80;2225250;80;21628;-79
2021/05/08 00:56:57;;;;;;;5.60;5.10;;;;;;;4.88;73.98;98721.61;2225149;80;21303;-79
2021/05/08 00:59:58;;;;;;;7.53;5.85;;;;;;;4.87;74.11;98725.16;2225395;80;21326;-79
2021/05/08 01:03:00;;;;;;;6.58;5.97;;;;;;;4.90;74.11;98729.24;2225275;80;21171;-79
2021/05/08 01:06:02;;;;;;;6.45;5.80;;;;;;;4.92;74.23;98731.20;2225548;80;21386;-78
2021/05/08 01:09:04;;;;;;;7.67;5.90;;;;;;;4.88;74.71;98731.98;2225357;80;21137;-78
2021/05/08 01:12:06;;;;;;;5.78;5.25;;;;;;;4.84;74.22;98741.81;2225364;80;21144;-79
2021/05/08 01:15:07;;;;;;;6.72;6.08;;;;;;;4.82;74.42;98744.22;2225359;80;21125;-78
2021/05/08 01:18:09;;;;;;;8.50;6.03;;;;;;;4.83;74.45;98736.28;2225144;80;21314;-78
2021/05/08 01:21:11;;;;;;;7.42;5.42;;;;;;;4.84;74.67;98741.81;2225161;80;21295;-78
2021/05/08 01:24:13;;;;;;;7.50;5.65;;;;;;;4.85;74.72;98753.85;2225576;80;21180;-79
2021/05/08 01:27:15;;;;;;;7.78;7.00;;;;;;;4.85;74.74;98741.36;2225497;80;21187;-78
2021/05/08 01:30:17;;;;;;;7.70;6.65;;;;;;;4.88;74.76;98750.63;2224979;80;21335;-78
2021/05/08 01:33:19;;;;;;;7.83;6.95;;;;;;;4.85;75.13;98748.66;2224794;80;21160;-79
2021/05/08 01:36:21;;;;;;;7.50;6.80;;;;;;;4.87;74.97;98764.56;2225167;80;21314;-79
2021/05/08 01:39:22;;;;;;;7.80;7.00;;;;;;;4.81;74.79;98773.72;2225183;80;21655;-80
2021/05/08 01:42:25;;;;;;;7.25;6.55;;;;;;;4.79;74.76;98773.05;2225171;80;21338;-79
2021/05/08 01:45:26;;;;;;;6.85;5.83;;;;;;;4.81;75.00;98773.72;2225039;80;21798;-81
2021/05/08 01:48:29;;;;;;;7.00;6.30;;;;;;;4.77;75.04;98769.30;2225095;80;21187;-79
2021/05/08 01:51:30;;;;;;;6.00;5.47;;;;;;;4.71;75.13;98775.53;2224840;80;21318;-80
2021/05/08 01:54:32;;;;;;;8.63;6.62;;;;;;;4.66;75.28;98782.41;2225251;80;21274;-80
2021/05/08 01:57:34;;;;;;;8.48;6.05;;;;;;;4.65;75.65;98786.45;2225159;80;21270;-80
2021/05/08 02:00:35;;;;;;;5.78;5.17;;;;;;;4.67;75.45;98789.27;2225321;80;21572;-79
2021/05/08 02:03:37;;;;;;;5.72;5.12;;;;;;;4.67;75.37;98787.97;2225173;80;21192;-79
2021/05/08 02:06:39;;;;;;;7.97;6.75;;;;;;;4.66;75.82;98784.20;2225306;80;21600;-80
2021/05/08 02:09:41;;;;;;;7.33;6.58;;;;;;;4.66;75.23;98795.39;2225596;80;21180;-79
2021/05/08 02:12:43;;;;;;;6.45;5.87;;;;;;;4.68;75.62;98801.75;2225387;80;21310;-80
2021/05/08 02:15:44;;;;;;;8.40;5.72;;;;;;;4.67;75.18;98806.61;2225190;80;21306;-79
2021/05/08 02:18:46;;;;;;;6.20;5.30;;;;;;;4.68;75.54;98803.87;2225089;80;21345;-80
2021/05/08 02:21:48;;;;;;;6.42;5.78;;;;;;;4.69;75.26;98804.69;2220311;80;21710;-80
2021/05/08 02:24:50;;;;;;;6.62;5.75;;;;;;;4.71;75.36;98814.44;2218409;80;21575;-80
2021/05/08 02:27:52;;;;;;;6.50;5.35;;;;;;;4.69;75.70;98811.17;2218269;80;21583;-80
2021/05/08 02:30:53;;;;;;;8.45;5.40;;;;;;;4.69;75.65;98818.47;2218505;80;21168;-80
2021/05/08 02:33:55;;;;;;;5.87;5.28;;;;;;;4.73;75.59;98819.00;2218253;80;21743;-80
2021/05/08 02:36:57;;;;;;;6.97;5.50;;;;;;;4.74;75.43;98822.74;2218761;80;21640;-80
2021/05/08 02:39:59;;;;;;;8.13;6.30;;;;;;;4.77;75.64;98830.27;2218387;80;21643;-79
2021/05/08 02:43:01;;;;;;;4.80;4.35;;;;;;;4.81;75.96;98830.80;2218193;80;21298;-79
2021/05/08 02:46:02;;;;;;;5.95;5.35;;;;;;;4.79;75.85;98830.94;2218156;80;21163;-78
2021/05/08 02:49:04;;;;;;;5.30;4.65;;;;;;;4.74;76.09;98831.01;2218407;80;21160;-78
2021/05/08 02:52:06;;;;;;;6.90;5.58;;;;;;;4.76;75.84;98836.90;2218380;80;21136;-78
2021/05/08 02:55:08;;;;;;;6.35;5.47;;;;;;;4.78;75.80;98845.35;2218273;80;21136;-79
2021/05/08 02:58:10;;;;;;;7.12;5.40;;;;;;;4.79;75.67;98845.69;2218022;80;21109;-79
2021/05/08 03:01:12;;;;;;;9.13;5.55;;;;;;;4.82;75.74;98862.27;2218454;80;21128;-79
2021/05/08 03:04:13;;;;;;;5.97;4.70;;;;;;;4.80;75.71;98861.11;2218442;80;21192;-78
2021/05/08 03:07:15;;;;;;;5.58;4.92;;;;;;;4.81;75.77;98856.73;2218268;80;21310;-80
2021/05/08 03:10:17;;;;;;;5.65;5.12;;;;;;;4.82;76.07;98860.97;2218137;80;21307;-80
2021/05/08 03:13:19;;;;;;;5.17;4.53;;;;;;;4.78;75.84;98861.73;2218124;80;21181;-80
2021/05/08 03:16:21;;;;;;;6.35;4.53;;;;;;;4.70;76.50;98868.09;2218362;80;21282;-80
2021/05/08 03:19:23;;;;;;;7.25;5.22;;;;;;;4.66;76.45;98873.68;2218103;80;21303;-80
2021/05/08 03:22:24;;;;;;;5.50;5.00;;;;;;;4.66;76.53;98873.68;2218295;80;21604;-80
2021/05/08 03:25:26;;;;;;;5.03;4.62;;;;;;;4.66;76.24;98877.09;2218334;80;21133;-81
2021/05/08 03:28:28;;;;;;;5.90;5.40;;;;;;;4.70;76.26;98886.73;2218232;80;21262;-80
2021/05/08 03:31:30;;;;;;;6.60;5.60;;;;;;;4.70;76.05;98896.63;2218421;80;21145;-79
2021/05/08 03:34:31;;;;;;;5.87;4.87;;;;;;;4.71;76.24;98889.18;2218437;80;21177;-80
2021/05/08 03:37:33;;;;;;;4.87;4.47;;;;;;;4.78;76.17;98899.83;2218259;80;21323;-81
2021/05/08 03:40:35;;;;;;;5.45;5.03;;;;;;;4.82;76.08;98900.70;2218243;80;21778;-79
2021/05/08 03:43:37;;;;;;;5.12;4.72;;;;;;;4.87;75.95;98906.78;2218424;80;21599;-80
2021/05/08 03:46:39;;;;;;;5.58;5.08;;;;;;;4.84;75.97;98912.23;2218677;80;21140;-79
2021/05/08 03:49:40;;;;;;;5.70;5.20;;;;;;;4.78;75.85;98912.32;2218496;80;22331;-80
2021/05/08 03:52:42;;;;;;;5.87;5.17;;;;;;;4.80;75.90;98913.48;2218403;80;21148;-79
2021/05/08 03:55:44;;;;;;;4.97;3.92;;;;;;;4.87;76.01;98916.34;2218627;80;21698;-79
2021/05/08 03:58:47;;;;;;;5.42;4.75;;;;;;;4.91;75.65;98918.99;2218962;80;21715;-80
2021/05/08 04:01:49;;;;;;;4.95;4.55;;;;;;;4.97;75.56;98917.16;2218219;80;21163;-79
2021/05/08 04:04:51;;;;;;;5.22;4.70;;;;;;;4.99;75.44;98922.53;2218358;80;21305;-80
2021/05/08 04:07:52;;;;;;;5.85;4.50;;;;;;;5.02;75.42;98936.52;2218256;80;21529;-80
2021/05/08 04:10:54;;;;;;;8.98;5.58;;;;;;;5.02;75.32;98935.22;2218540;80;21258;-80
2021/05/08 04:13:56;;;;;;;5.45;4.22;;;;;;;4.96;75.40;98940.17;2218498;80;21156;-80
2021/05/08 04:16:58;;;;;;;5.70;4.83;;;;;;;4.95;75.36;98937.23;2218651;80;21141;-80
2021/05/08 04:20:00;;;;;;;6.53;5.92;;;;;;;5.01;75.32;98944.45;2218542;80;21160;-80
2021/05/08 04:23:01;;;;;;;7.90;5.22;;;;;;;5.07;75.09;98955.59;2218478;80;21188;-79
2021/05/08 04:26:03;;;;;;;4.92;4.50;;;;;;;5.09;74.67;98951.89;2218657;80;21188;-79
2021/05/08 04:29:05;;;;;;;4.78;3.95;;;;;;;5.08;74.64;98955.92;2218415;80;21160;-80
2021/05/08 04:32:07;;;;;;;5.10;4.22;;;;;;;5.13;74.50;98964.13;2218260;80;21186;-80
2021/05/08 04:35:08;;;;;;;5.05;4.55;;;;;;;5.20;74.46;98963.07;2218459;80;21180;-80
2021/05/08 04:38:10;;;;;;;5.03;3.75;;;;;;;5.32;74.41;98966.69;2218404;80;21579;-80
2021/05/08 04:41:13;;;;;;;4.50;4.12;;;;;;;5.62;73.75;98970.84;2218602;80;21148;-80
2021/05/08 04:44:15;;;;;;;4.55;4.12;;;;;;;5.74;73.93;98975.85;2218873;80;21758;-80
2021/05/08 04:47:20;;;;;;;6.40;4.75;;;;;;;6.15;72.94;98971.55;2218493;80;22268;-80
2021/05/08 04:50:20;;;;;;;5.30;4.53;;;;;;;6.58;72.30;98975.23;2217996;80;21262;-80
2021/05/08 04:53:22;;;;;;;6.00;3.58;;;;;;;7.15;71.39;98977.06;2218586;80;21180;-80
2021/05/08 04:56:23;;;;;;;4.12;3.65;;;;;;;7.24;69.81;98972.24;2218436;80;21173;-80
2021/05/08 04:59:25;;;;;;;3.58;3.27;;;;;;;7.70;69.72;98978.89;2218703;80;21325;-81
2021/05/08 05:02:27;;;;;;;3.90;3.60;;;;;;;8.12;68.75;98987.70;2218490;80;21160;-81
2021/05/08 05:05:30;;;;;;;4.00;3.40;;;;;;;8.21;69.05;98994.09;2218416;80;21136;-81
2021/05/08 05:08:32;;;;;;;3.72;2.92;;;;;;;8.21;68.36;98991.48;2218835;80;21283;-81
2021/05/08 05:11:34;;;;;;;3.90;3.25;;;;;;;8.06;68.24;98990.96;2218521;80;21144;-81
2021/05/08 05:14:36;;;;;;;4.83;3.50;;;;;;;7.95;67.76;98982.45;2218253;80;21779;-81
2021/05/08 05:17:37;;;;;;;3.40;2.98;;;;;;;7.98;68.52;98988.64;2218352;80;21172;-81
2021/05/08 05:20:40;;;;;;;3.77;3.47;;;;;;;7.88;68.10;98995.77;2218122;80;21302;-81
2021/05/08 05:23:42;;;;;;;2.75;2.40;;;;;;;7.82;68.17;98997.68;2217917;80;21132;-80
2021/05/08 05:26:43;;;;;;;3.77;3.37;;;;;;;7.73;67.16;98992.09;2218228;80;21735;-80
2021/05/08 05:29:45;;;;;;;4.62;3.90;;;;;;;7.62;67.47;99010.11;2218286;80;21612;-80
2021/05/08 05:32:47;;;;;;;4.05;3.50;;;;;;;7.67;67.92;99012.25;2218080;80;21307;-80
2021/05/08 05:35:49;;;;;;;3.60;3.15;;;;;;;7.68;67.86;99012.12;2218297;80;21609;-80
2021/05/08 05:38:50;;;;;;;4.12;3.65;;;;;;;7.70;67.20;99009.35;2218088;80;21263;-80
2021/05/08 05:41:52;;;;;;;5.15;3.90;;;;;;;7.77;67.02;99010.34;2218199;80;21263;-80
2021/05/08 05:44:54;;;;;;;3.70;3.40;;;;;;;8.07;67.08;99014.27;2218195;80;21141;-80
2021/05/08 05:47:55;;;;;;;4.90;3.85;;;;;;;8.16;66.36;99026.86;2218163;80;21303;-80
2021/05/08 05:50:57;;;;;;;4.35;3.95;;;;;;;8.17;66.78;99024.58;2218231;80;21319;-81
2021/05/08 05:53:59;;;;;;;5.05;3.90;;;;;;;8.08;66.67;99027.64;2218169;80;21295;-80
2021/05/08 05:57:01;;;;;;;6.95;5.03;;;;;;;8.04;66.48;99022.88;2218452;80;21167;-80
2021/05/08 06:00:02;;;;;;;4.67;4.25;;;;;;;8.03;66.91;99025.97;2218175;80;21295;-80
2021/05/08 06:03:05;;;;;;;6.40;4.83;;;;;;;8.10;67.02;99026.98;2218272;80;21164;-80
2021/05/08 06:06:06;;;;;;;5.03;4.12;;;;;;;8.23;66.97;99032.61;2218376;80;21163;-84
2021/05/08 06:09:08;;;;;;;4.28;3.37;;;;;;;8.35;66.57;99040.99;2218181;80;21275;-86
2021/05/08 06:12:10;;;;;;;4.80;4.30;;;;;;;8.47;66.03;99035.00;2218225;80;21608;-87
2021/05/08 06:15:13;;;;;;;4.90;4.00;;;;;;;8.51;66.32;99038.45;2218442;80;21116;-84
2021/05/08 06:18:15;;;;;;;6.10;5.22;;;;;;;8.65;65.82;99034.89;2218069;80;21179;-87
2021/05/08 06:21:17;;;;;;;7.53;5.15;;;;;;;8.98;65.78;99042.31;2218170;80;21177;-87
2021/05/08 06:24:19;;;;;;;5.12;4.50;;;;;;;9.24;65.81;99037.77;2187540;80;21279;-86
2021/05/08 06:27:22;;;;;;;5.35;3.27;;;;;;;9.43;64.33;99034.50;2218709;80;21658;-83
2021/05/08 06:30:24;;;;;;;5.35;4.65;;;;;;;9.55;63.60;99039.70;2218167;80;21117;-85
2021/05/08 06:33:26;;;;;;;9.55;5.90;;;;;;;9.57;63.76;99046.39;2218307;80;21109;-85
2021/05/08 06:36:28;;;;;;;12.07;6.47;;;;;;;9.64;63.90;99046.56;2218338;80;21136;-85
2021/05/08 06:39:30;;;;;;;11.10;6.58;;;;;;;9.74;63.48;99046.38;2218366;80;21141;-84
2021/05/08 06:42:32;;;;;;;13.38;6.45;;;;;;;9.80;62.96;99046.55;2218156;80;21271;-83
2021/05/08 06:45:35;;;;;;;8.58;5.50;;;;;;;9.87;62.97;99048.80;2218483;80;21294;-86
2021/05/08 06:48:37;;;;;;;13.50;7.97;;;;;;;9.96;62.36;99046.98;2218340;80;21157;-82
2021/05/08 06:51:39;;;;;;;7.08;5.55;;;;;;;10.11;61.79;99049.73;2218058;80;21171;-84
2021/05/08 06:54:41;;;;;;;8.95;5.95;;;;;;;10.32;61.30;99044.77;2218296;80;21148;-85
2021/05/08 06:57:42;;;;;;;5.37;4.20;;;;;;;10.44;61.02;99046.55;2218561;80;21314;-85
2021/05/08 07:00:45;;;;;;;7.17;4.80;;;;;;;10.53;59.17;99042.41;2218056;80;21206;-84
2021/05/08 07:03:48;;;;;;;5.72;4.17;;;;;;;10.69;61.18;99040.67;2187532;80;21286;-87
2021/05/08 07:06:49;;;;;;;5.42;4.90;;;;;;;10.90;59.86;99038.77;2218167;80;21295;-86
2021/05/08 07:09:51;;;;;;;10.68;5.90;;;;;;;11.06;61.23;99042.11;2218119;80;21165;-84
2021/05/08 07:12:53;;;;;;;3.95;3.35;;;;;;;11.28;60.15;99047.02;2218050;80;21782;-85
2021/05/08 07:15:56;;;;;;;3.27;2.90;;;;;;;11.50;59.46;99043.22;2218343;80;21782;-88
2021/05/08 07:18:58;;;;;;;5.42;4.90;;;;;;;11.43;57.07;99048.84;2217961;80;21168;-85
2021/05/08 07:22:01;;;;;;;5.20;4.60;;;;;;;11.34;59.42;99038.95;2209419;80;21154;-86
2021/05/08 07:25:03;;;;;;;3.17;2.80;;;;;;;11.33;58.09;99042.53;2189927;81;21636;-92
2021/05/08 07:28:05;;;;;;;3.42;2.72;;;;;;;11.17;55.81;99032.20;2189725;81;21200;-84
2021/05/08 07:31:07;;;;;;;4.00;3.40;;;;;;;11.08;56.29;99044.05;2189679;80;21177;-83
2021/05/08 07:34:08;;;;;;;3.80;3.22;;;;;;;10.96;56.50;99032.81;2189910;80;21624;-84
2021/05/08 07:37:10;;;;;;;3.58;3.20;;;;;;;10.98;57.07;99036.92;2189897;81;21116;-83
2021/05/08 07:40:12;;;;;;;7.50;3.83;;;;;;;11.14;57.49;99035.16;2189733;80;21148;-83
2021/05/08 07:43:14;;;;;;;6.45;4.40;;;;;;;11.52;55.68;99031.59;2189547;81;21141;-84
2021/05/08 07:46:16;;;;;;;5.10;3.17;;;;;;;11.75;54.46;99035.95;2189575;81;21278;-84
2021/05/08 07:49:18;;;;;;;3.70;3.20;;;;;;;11.84;53.35;99041.47;2189693;80;21580;-84
2021/05/08 07:52:20;;;;;;;6.92;4.00;;;;;;;11.83;52.96;99042.47;2189786;80;21149;-84
2021/05/08 07:55:23;;;;;;;5.70;3.65;;;;;;;11.71;53.25;99046.00;2189912;81;21148;-82
2021/05/08 07:58:25;;;;;;;2.95;2.70;;;;;;;11.44;50.21;99039.52;2189849;80;21628;-82
2021/05/08 08:01:27;;;;;;;4.80;3.20;;;;;;;11.17;50.98;99043.99;2189705;81;21177;-83
2021/05/08 08:04:29;;;;;;;3.30;3.00;;;;;;;11.05;52.19;99052.23;2189851;81;21600;-82
2021/05/08 08:07:31;;;;;;;3.33;2.92;;;;;;;11.15;52.20;99055.13;2189806;81;21167;-82
2021/05/08 08:10:33;;;;;;;3.12;2.02;;;;;;;11.31;52.14;99051.89;2189805;80;21169;-82
2021/05/08 08:13:36;;;;;;;4.42;2.37;;;;;;;11.43;50.98;99050.16;2189859;80;21145;-82
2021/05/08 08:16:38;;;;;;;2.75;2.40;;;;;;;11.72;51.35;99052.88;2189797;80;21165;-83
2021/05/08 08:19:40;;;;;;;5.97;3.52;;;;;;;11.90;48.56;99048.13;2189781;81;21136;-82
2021/05/08 08:22:42;;;;;;;2.00;1.80;;;;;;;11.85;47.72;99050.47;2202632;80;21151;-82
2021/05/08 08:25:44;;;;;;;4.30;2.35;;;;;;;11.60;47.98;99063.45;2218409;80;21132;-83
2021/05/08 08:28:46;;;;;;;6.30;2.80;;;;;;;11.33;49.93;99071.37;2218227;80;21286;-89
2021/05/08 08:31:48;;;;;;;5.47;3.40;;;;;;;11.13;50.65;99063.16;2246733;79;21247;-86
2021/05/08 08:34:50;;;;;;;4.03;2.70;;;;;;;11.06;50.76;99071.39;2258228;79;21154;-85
2021/05/08 08:37:53;;;;;;;2.62;2.33;;;;;;;11.11;50.15;99068.59;2258212;79;21195;-86
2021/05/08 08:40:55;;;;;;;3.58;2.42;;;;;;;11.21;48.88;99086.70;2258427;79;21702;-83
2021/05/08 08:43:57;;;;;;;5.45;4.08;;;;;;;11.36;49.99;99074.48;2258364;79;21305;-82
2021/05/08 08:46:58;;;;;;;4.78;2.52;;;;;;;11.63;50.00;99070.98;2258337;78;21128;-83
2021/05/08 08:50:00;;;;;;;7.87;4.87;;;;;;;11.75;47.84;99071.36;2258308;79;21277;-82
2021/05/08 08:53:02;;;;;;;5.40;2.30;;;;;;;11.74;48.40;99073.17;2257849;79;21154;-83
2021/05/08 08:56:05;;;;;;;2.33;2.12;;;;;;;11.83;47.45;99066.08;2258200;79;21132;-84
2021/05/08 08:59:14;;;;;;;4.78;2.42;;;;;;;11.95;48.73;99062.02;2258236;79;21590;-84
2021/05/08 09:02:15;;;;;;;2.17;1.83;;;;;;;12.15;48.24;99067.53;2258356;79;21147;-83
2021/05/08 09:05:17;;;;;;;3.95;2.77;;;;;;;12.17;47.27;99066.38;2258290;79;21761;-80
2021/05/08 09:08:19;;;;;;;5.87;2.75;;;;;;;11.99;45.69;99070.36;2258414;79;21269;-84
2021/05/08 09:11:20;;;;;;;5.12;2.58;;;;;;;11.82;46.59;99067.89;2258435;79;21304;-82
2021/05/08 09:14:23;;;;;;;2.80;2.20;;;;;;;11.63;44.43;99084.91;2258054;79;21171;-83
2021/05/08 09:17:26;;;;;;;3.02;2.08;;;;;;;11.40;44.12;99084.92;2258120;79;21309;-83
2021/05/08 09:20:28;;;;;;;7.67;3.47;;;;;;;11.25;46.32;99084.07;2258396;79;21274;-83
2021/05/08 09:23:30;;;;;;;2.90;1.87;;;;;;;11.09;46.57;99082.86;2258327;79;21301;-82
2021/05/08 09:26:32;;;;;;;3.05;2.67;;;;;;;11.11;47.23;99078.25;2258281;78;21273;-82
2021/05/08 09:29:34;;;;;;;3.87;2.12;;;;;;;11.23;47.05;99081.28;2258342;79;21150;-81
2021/05/08 09:32:37;;;;;;;2.70;2.17;;;;;;;11.27;44.87;99080.77;2258070;79;21131;-82
2021/05/08 09:35:38;;;;;;;2.42;1.75;;;;;;;11.11;46.48;99082.19;2258319;79;21777;-83
2021/05/08 09:38:40;;;;;;;3.17;2.67;;;;;;;10.97;46.78;99089.47;2258093;79;21123;-84
2021/05/08 09:41:42;;;;;;;3.85;3.17;;;;;;;10.74;49.75;99099.42;2258581;79;21127;-84
2021/05/08 09:44:44;;;;;;;3.90;3.47;;;;;;;10.65;51.10;99088.66;2259172;79;21305;-84
2021/05/08 09:47:46;;;;;;;3.33;2.85;;;;;;;10.60;51.50;99090.96;2258782;79;21274;-83
2021/05/08 09:50:47;;;;;;;3.15;2.60;;;;;;;10.67;53.00;99075.39;2258260;79;21136;-85
2021/05/08 09:53:49;;;;;;;4.05;3.02;;;;;;;10.74;50.72;99077.66;2258235;79;21646;-83
2021/05/08 09:56:51;;;;;;;4.72;3.27;;;;;;;10.78;50.54;99077.13;2258107;79;21752;-84
2021/05/08 09:59:54;;;;;;;4.08;2.98;;;;;;;10.96;51.08;99082.59;2218205;80;21134;-88
2021/05/08 10:02:56;;;;;;;2.70;2.50;;;;;;;11.27;51.15;99068.16;2218519;80;21143;-81
2021/05/08 10:05:58;;;;;;;3.75;2.20;;;;;;;11.55;49.79;99066.62;2218332;80;21143;-82
2021/05/08 10:09:00;;;;;;;2.55;2.15;;;;;;;11.71;47.84;99062.23;2218237;80;21586;-83
2021/05/08 10:12:02;;;;;;;2.80;2.12;;;;;;;11.76;46.66;99065.94;2217916;80;21163;-81
2021/05/08 10:15:04;;;;;;;2.30;2.10;;;;;;;11.85;48.58;99057.52;2218330;80;21108;-82
2021/05/08 10:18:05;;;;;;;2.72;2.37;;;;;;;12.06;48.13;99062.87;2217977;80;21328;-82
2021/05/08 10:21:07;;;;;;;2.35;2.15;;;;;;;12.36;47.39;99062.89;2218502;80;21138;-82
2021/05/08 10:24:09;;;;;;;5.03;2.92;;;;;;;12.62;47.08;99072.42;2223347;80;21317;-82
2021/05/08 10:27:11;;;;;;;6.33;3.35;;;;;;;12.57;45.48;99091.03;2225241;80;21313;-83
2021/05/08 10:30:14;;;;;;;2.67;2.40;;;;;;;12.48;45.66;99088.50;2224974;80;21721;-82
2021/05/08 10:33:17;;;;;;;4.53;1.80;;;;;;;12.40;45.64;99085.16;2224982;80;21161;-82
2021/05/08 10:36:19;;;;;;;2.90;2.15;;;;;;;12.44;43.99;99079.37;2225184;80;21324;-82
2021/05/08 10:39:21;;;;;;;7.25;3.33;;;;;;;12.48;43.75;99080.62;2224907;80;21159;-82
2021/05/08 10:42:22;;;;;;;2.52;2.33;;;;;;;12.40;42.55;99067.58;2225499;80;21474;-82
2021/05/08 10:45:25;;;;;;;2.70;1.72;;;;;;;12.28;42.90;99078.73;2225019;80;21171;-81
2021/05/08 10:48:26;;;;;;;3.70;2.50;;;;;;;12.33;44.03;99075.05;2225285;80;21131;-82
2021/05/08 10:51:29;;;;;;;5.20;2.67;;;;;;;12.31;42.71;99065.23;2225474;80;21625;-82
2021/05/08 10:54:31;;;;;;;2.85;2.25;;;;;;;12.45;41.83;99045.54;2225194;80;21312;-82
2021/05/08 10:57:33;;;;;;;4.58;2.08;;;;;;;12.63;43.25;99055.66;2225250;80;21301;-82
2021/05/08 11:00:35;;;;;;;3.62;2.60;;;;;;;12.95;42.00;99066.71;2225033;80;21305;-82
2021/05/08 11:03:37;;;;;;;4.70;2.20;;;;;;;13.05;40.75;99060.64;2225006;80;21134;-82
2021/05/08 11:06:38;;;;;;;4.53;2.77;;;;;;;13.04;40.32;99067.72;2225232;80;21723;-83
2021/05/08 11:09:40;;;;;;;4.50;1.77;;;;;;;12.95;41.79;99062.27;2225056;80;22266;-83
2021/05/08 11:12:42;;;;;;;4.70;2.27;;;;;;;12.93;40.72;99073.47;2225089;80;21690;-82
2021/05/08 11:15:45;;;;;;;2.83;1.75;;;;;;;12.72;38.88;99067.69;2224688;80;21171;-83
2021/05/08 11:18:47;;;;;;;4.40;2.67;;;;;;;12.56;38.40;99053.94;2225144;80;21300;-82
2021/05/08 11:21:49;;;;;;;2.67;2.10;;;;;;;12.47;38.72;99080.30;2225132;80;21301;-82
2021/05/08 11:24:52;;;;;;;4.37;2.87;;;;;;;12.33;39.37;99071.92;2218945;80;21206;-81
2021/05/08 11:27:54;;;;;;;2.83;2.55;;;;;;;12.32;40.18;99068.17;2218418;80;21159;-82
2021/05/08 11:30:56;;;;;;;3.02;2.50;;;;;;;12.55;40.64;99069.39;2218583;80;21545;-82
2021/05/08 11:33:58;;;;;;;2.55;2.20;;;;;;;12.90;41.52;99074.36;2218253;80;21151;-82
2021/05/08 11:37:00;;;;;;;2.60;2.22;;;;;;;13.17;39.41;99078.89;2218563;80;21300;-82
2021/05/08 11:40:01;;;;;;;4.45;2.17;;;;;;;13.25;39.53;99072.70;2218226;80;21626;-82
2021/05/08 11:43:04;;;;;;;2.77;2.27;;;;;;;13.26;39.98;99065.16;2218275;80;21615;-83
2021/05/08 11:46:05;;;;;;;2.30;2.08;;;;;;;13.12;38.26;99060.72;2218108;80;21290;-83
2021/05/08 11:49:07;;;;;;;2.87;2.27;;;;;;;12.99;38.57;99070.11;2218776;80;21317;-83
2021/05/08 11:52:09;;;;;;;2.80;2.50;;;;;;;12.90;38.60;99053.33;2218075;80;21313;-83
2021/05/08 11:55:11;;;;;;;3.95;2.95;;;;;;;12.92;39.41;99074.98;2218561;80;21305;-83
2021/05/08 11:58:13;;;;;;;2.75;2.55;;;;;;;13.08;38.58;99068.18;2218434;80;21296;-83
2021/05/08 12:01:15;;;;;;;3.05;2.10;;;;;;;13.14;38.19;99070.05;2218122;80;21170;-83
2021/05/08 12:04:17;;;;;;;2.60;2.22;;;;;;;13.19;39.23;99061.61;2218959;80;21143;-83
2021/05/08 12:07:19;;;;;;;3.05;2.42;;;;;;;13.33;38.78;99062.06;2218748;80;21135;-83
2021/05/08 12:10:21;;;;;;;2.42;2.20;;;;;;;13.41;39.44;99075.59;2218357;80;21169;-83
2021/05/08 12:13:23;;;;;;;3.08;1.98;;;;;;;13.62;37.57;99041.35;2218345;80;21600;-82
2021/05/08 12:16:25;;;;;;;1.77;1.67;;;;;;;13.55;37.30;99047.09;2218267;80;21305;-82
2021/05/08 12:19:38;;;;;;;1.87;1.55;;;;;;;13.58;37.95;99062.48;2210419;79;23325;-84
2021/05/08 12:22:52;;;;;;;2.55;2.05;;;;;;;13.38;36.62;99050.48;2210470;79;23001;-82
2021/05/08 12:26:05;;;;;;;2.37;1.70;;;;;;;13.14;36.52;99054.77;2216001;79;22898;-82
2021/05/08 12:29:26;;;;;;;2.98;2.10;;;;;;;13.01;36.39;99057.59;2259383;79;22422;-82
2021/05/08 12:32:39;;;;;;;2.05;1.92;;;;;;;12.97;36.55;99059.45;2272776;77;22306;-81
2021/05/08 12:35:52;;;;;;;1.87;1.77;;;;;;;12.88;34.93;99048.23;2259356;79;22469;-81
2021/05/08 12:39:04;;;;;;;3.72;2.30;;;;;;;12.92;36.00;99052.64;2236528;79;27905;-81
2021/05/08 12:42:17;;;;;;;2.17;1.82;;;;;;;13.16;34.97;99061.96;2210642;79;22890;-81
2021/05/08 12:45:31;;;;;;;4.15;2.30;;;;;;;13.23;34.38;99048.41;2209978;79;23043;-81
2021/05/08 12:48:45;;;;;;;4.22;2.35;;;;;;;13.38;34.95;99042.09;2252930;79;22880;-82
2021/05/08 12:51:55;;;;;;;5.85;3.20;;;;;;;13.55;35.69;99053.66;2215883;79;23046;-81
2021/05/08 12:55:08;;;;;;;3.05;2.75;;;;;;;13.69;35.44;99043.54;2250574;79;22988;-83
2021/05/08 12:58:22;;;;;;;5.17;2.70;;;;;;;13.79;35.95;99055.05;2216191;79;23005;-81
2021/05/08 13:01:33;;;;;;;3.67;2.77;;;;;;;13.83;37.12;99040.52;2230954;79;28111;-83
2021/05/08 13:04:47;;;;;;;2.00;1.90;;;;;;;14.03;36.17;99044.58;2259363;79;22573;-83
2021/05/08 13:08:01;;;;;;;2.83;2.30;;;;;;;14.00;36.32;99054.19;2210428;79;22749;-81
2021/05/08 13:11:15;;;;;;;6.72;3.52;;;;;;;14.01;37.04;99059.27;2298649;77;23027;-81
2021/05/08 13:14:25;;;;;;;3.15;2.55;;;;;;;14.02;37.03;99058.76;2210193;79;23065;-83
2021/05/08 13:17:38;;;;;;;3.08;2.30;;;;;;;13.96;36.74;99065.59;2250501;79;22842;-81
2021/05/08 13:20:51;;;;;;;2.42;2.22;;;;;;;14.00;36.69;99055.52;2250585;79;23454;-83
2021/05/08 13:24:06;;;;;;;2.90;2.20;;;;;;;14.06;37.22;99050.77;2250575;79;22863;-81
2021/05/08 13:27:16;;;;;;;2.60;2.30;;;;;;;14.02;37.46;99054.30;2239841;79;27774;-82
2021/05/08 13:30:30;;;;;;;4.97;4.12;;;;;;;14.04;36.42;99048.33;2215895;79;23038;-82
2021/05/08 13:33:43;;;;;;;3.75;3.55;;;;;;;13.90;36.94;99053.22;2210290;79;23045;-81
2021/05/08 13:36:56;;;;;;;2.77;2.58;;;;;;;13.81;36.78;99048.61;2272754;77;22428;-81
2021/05/08 13:40:10;;;;;;;5.80;3.00;;;;;;;13.63;35.95;99055.66;2250454;79;22841;-82
2021/05/08 13:43:25;;;;;;;2.87;2.67;;;;;;;13.53;35.54;99050.39;2250418;79;23010;-81
2021/05/08 13:46:39;;;;;;;6.37;3.02;;;;;;;13.45;34.92;99046.10;2210304;79;22894;-82
2021/05/08 13:49:53;;;;;;;2.50;2.15;;;;;;;13.56;36.81;99052.66;2252918;79;23017;-83
2021/05/08 13:53:14;;;;;;;3.30;2.67;;;;;;;13.64;35.43;99055.97;2259156;79;23253;-82
2021/05/08 13:56:29;;;;;;;4.85;2.67;;;;;;;13.68;35.42;99052.44;2210107;79;23025;-82
2021/05/08 13:59:41;;;;;;;5.70;3.58;;;;;;;13.66;35.88;99057.90;2210643;79;23051;-81
2021/05/08 14:02:55;;;;;;;3.95;2.70;;;;;;;13.54;35.09;99077.03;2272751;77;22881;-83
2021/05/08 14:06:09;;;;;;;5.08;4.50;;;;;;;13.30;36.59;99072.97;2210305;79;22443;-81
2021/05/08 14:09:22;;;;;;;3.45;2.85;;;;;;;13.05;37.68;99092.19;2272811;77;22981;-80
2021/05/08 14:12:32;;;;;;;4.10;3.47;;;;;;;12.83;38.48;99087.41;2250576;79;22977;-80
2021/05/08 14:15:42;;;;;;;2.55;2.35;;;;;;;12.74;38.46;99083.27;2253048;79;23002;-83
2021/05/08 14:18:56;;;;;;;4.15;3.00;;;;;;;12.79;38.52;99083.51;2272885;77;22828;-81
2021/05/08 14:22:10;;;;;;;5.05;2.90;;;;;;;12.80;38.88;99075.47;2272619;77;22981;-82
2021/05/08 14:25:24;;;;;;;2.98;2.70;;;;;;;12.83;38.63;99076.09;2272848;77;22984;-82
2021/05/08 14:28:37;;;;;;;2.52;2.33;;;;;;;12.84;38.92;99073.27;2272822;77;22414;-82